Time;durP1;ratioP1;P1;durP2;ratioP2;P2;SDS_P1;SDS_P2;PMS_P1;PMS_P2;Temp;Humidity;BMP_temperature;BMP_pressure;BME280_temperature;BME280_humidity;BME280_pressure;Samples;Min_cycle;Max_cycle;Signal;HPM_P1;HPM_P2
2023/10/18 00:00:58;;;;;;;3.13;2.90;;;22.10;62.70;;;;;;5032263;28;20499;-73
2023/10/18 00:03:29;;;;;;;4.63;3.37;;;22.10;62.70;;;;;;5033062;28;20466;-75
2023/10/18 00:05:58;;;;;;;3.90;3.47;;;22.10;62.70;;;;;;5035012;28;20557;-73
2023/10/18 00:08:28;;;;;;;4.00;3.20;;;22.10;62.70;;;;;;5037768;28;20453;-74
2023/10/18 00:10:59;;;;;;;4.27;3.10;;;22.10;62.70;;;;;;5041504;28;20472;-75
2023/10/18 00:13:27;;;;;;;2.80;2.60;;;22.10;62.70;;;;;;5034392;28;20467;-77
2023/10/18 00:16:01;;;;;;;3.50;3.20;;;22.10;62.70;;;;;;5036163;28;20487;-73
2023/10/18 00:18:29;;;;;;;3.07;2.83;;;22.10;62.70;;;;;;5032886;28;20827;-74
2023/10/18 00:21:01;;;;;;;2.90;2.70;;;22.10;62.70;;;;;;5035159;28;20455;-72
2023/10/18 00:23:32;;;;;;;3.80;3.50;;;22.10;62.70;;;;;;5042129;28;20451;-75
2023/10/18 00:26:05;;;;;;;2.80;2.60;;;22.10;62.80;;;;;;5036985;28;20673;-76
2023/10/18 00:28:34;;;;;;;3.23;2.93;;;22.10;62.70;;;;;;5039823;28;20876;-75
2023/10/18 00:31:11;;;;;;;3.40;3.10;;;22.10;62.70;;;;;;5044962;28;20462;-75
2023/10/18 00:33:39;;;;;;;3.63;3.30;;;22.00;62.80;;;;;;5053320;28;20954;-75
2023/10/18 00:36:10;;;;;;;3.23;3.03;;;22.00;62.80;;;;;;5051478;28;20469;-75
2023/10/18 00:38:41;;;;;;;3.20;2.90;;;22.00;62.80;;;;;;5048666;28;21593;-75
2023/10/18 00:41:14;;;;;;;3.60;3.30;;;22.00;62.80;;;;;;5047194;28;20461;-76
2023/10/18 00:43:45;;;;;;;3.57;3.00;;;22.00;62.80;;;;;;5034121;28;20514;-73
2023/10/18 00:46:15;;;;;;;3.00;2.80;;;22.00;62.80;;;;;;5038135;28;20462;-74
2023/10/18 00:48:45;;;;;;;3.10;2.90;;;22.00;62.80;;;;;;5073305;28;20954;-75
2023/10/18 00:51:17;;;;;;;3.47;3.10;;;22.00;62.80;;;;;;5044141;28;20472;-75
2023/10/18 00:53:48;;;;;;;4.23;2.97;;;22.00;62.80;;;;;;5049946;28;20470;-75
2023/10/18 00:56:16;;;;;;;4.13;2.80;;;22.00;62.80;;;;;;5050055;28;20466;-76
2023/10/18 00:58:46;;;;;;;3.60;3.27;;;22.00;62.80;;;;;;5048006;28;20553;-75
2023/10/18 01:01:17;;;;;;;2.73;2.53;;;22.00;62.80;;;;;;5049612;28;20525;-76
2023/10/18 01:03:49;;;;;;;6.97;3.43;;;22.00;62.80;;;;;;5045234;28;20466;-75
2023/10/18 01:06:24;;;;;;;3.77;2.80;;;22.00;62.80;;;;;;5035128;28;20467;-76
2023/10/18 01:08:55;;;;;;;3.87;2.60;;;22.00;62.80;;;;;;5062892;28;20454;-75
2023/10/18 01:11:27;;;;;;;3.83;3.50;;;22.00;62.80;;;;;;5045624;28;20465;-75
2023/10/18 01:13:56;;;;;;;4.73;3.40;;;22.00;62.80;;;;;;5063469;28;20825;-74
2023/10/18 01:16:27;;;;;;;4.13;2.80;;;22.00;62.80;;;;;;5048275;28;20488;-73
2023/10/18 01:18:56;;;;;;;3.00;2.53;;;22.00;62.80;;;;;;5048785;28;20503;-73
2023/10/18 01:21:26;;;;;;;5.10;3.10;;;21.90;62.80;;;;;;5045687;28;20539;-75
2023/10/18 01:23:59;;;;;;;3.80;2.40;;;21.90;62.80;;;;;;5046702;28;20475;-75
2023/10/18 01:26:31;;;;;;;3.90;3.27;;;21.90;62.80;;;;;;5050094;28;20469;-75
2023/10/18 01:29:08;;;;;;;3.27;2.97;;;21.90;62.90;;;;;;5047110;28;20489;-75
2023/10/18 01:31:41;;;;;;;3.93;3.00;;;21.90;62.80;;;;;;5062839;28;20489;-76
2023/10/18 01:34:10;;;;;;;2.70;2.47;;;21.90;62.80;;;;;;5048596;28;20460;-75
2023/10/18 01:36:42;;;;;;;3.33;2.80;;;21.90;62.80;;;;;;5049648;28;21070;-75
2023/10/18 01:39:18;;;;;;;4.60;2.40;;;21.90;62.80;;;;;;5043225;28;20984;-74
2023/10/18 01:41:50;;;;;;;3.23;2.83;;;21.90;62.90;;;;;;5037630;28;20517;-75
2023/10/18 01:44:30;;;;;;;2.50;2.30;;;21.90;62.90;;;;;;5042061;28;20551;-71
2023/10/18 01:47:06;;;;;;;3.73;3.00;;;21.90;62.90;;;;;;5045560;28;20552;-75
2023/10/18 01:49:41;;;;;;;5.07;2.40;;;21.90;62.90;;;;;;5053091;28;20449;-75
2023/10/18 01:52:11;;;;;;;2.70;2.50;;;21.90;62.90;;;;;;5052651;28;20452;-75
2023/10/18 01:54:40;;;;;;;3.43;2.90;;;21.80;62.90;;;;;;5061996;28;20565;-75
2023/10/18 01:57:11;;;;;;;3.03;2.73;;;21.80;62.90;;;;;;5047089;28;20905;-75
2023/10/18 01:59:40;;;;;;;2.53;2.33;;;21.80;63.00;;;;;;5055421;28;20476;-74
2023/10/18 02:02:10;;;;;;;3.50;2.97;;;21.80;63.00;;;;;;5034349;28;20553;-75
2023/10/18 02:04:41;;;;;;;2.40;2.30;;;21.80;63.00;;;;;;5067348;28;20461;-75
2023/10/18 02:07:21;;;;;;;3.10;2.80;;;21.80;63.00;;;;;;5049066;28;20493;-75
2023/10/18 02:09:52;;;;;;;2.80;2.50;;;21.80;63.00;;;;;;5062896;28;20484;-75
2023/10/18 02:12:22;;;;;;;2.63;2.43;;;21.80;63.00;;;;;;5042665;28;20465;-73
2023/10/18 02:14:52;;;;;;;3.20;2.50;;;21.80;63.00;;;;;;5040997;28;20457;-75
2023/10/18 02:17:21;;;;;;;4.33;2.80;;;21.80;63.00;;;;;;5039606;28;20998;-74
2023/10/18 02:19:50;;;;;;;2.77;2.53;;;21.80;63.00;;;;;;5033632;28;20477;-75
2023/10/18 02:22:19;;;;;;;2.80;2.60;;;21.80;63.00;;;;;;5053164;28;20482;-76
2023/10/18 02:24:50;;;;;;;2.50;2.30;;;21.80;63.00;;;;;;5053846;28;20457;-74
2023/10/18 02:27:19;;;;;;;3.03;2.83;;;21.80;63.00;;;;;;5055516;28;20886;-76
2023/10/18 02:29:52;;;;;;;3.20;2.90;;;21.80;63.00;;;;;;5053344;28;20505;-75
2023/10/18 02:32:30;;;;;;;2.20;2.10;;;21.80;63.10;;;;;;5058651;28;20508;-75
2023/10/18 02:34:59;;;;;;;2.10;2.00;;;21.70;63.10;;;;;;5064073;28;20542;-75
2023/10/18 02:37:27;;;;;;;2.57;2.37;;;21.70;63.10;;;;;;5045611;28;20985;-75
2023/10/18 02:40:07;;;;;;;2.87;2.60;;;21.80;63.10;;;;;;5042826;28;20476;-74
2023/10/18 02:42:36;;;;;;;2.47;2.27;;;21.70;63.10;;;;;;5056659;28;20493;-74
2023/10/18 02:45:12;;;;;;;2.73;2.50;;;21.70;63.10;;;;;;5049279;28;20503;-75
2023/10/18 02:47:41;;;;;;;2.80;2.60;;;21.70;63.10;;;;;;5052553;28;20536;-76
2023/10/18 02:50:14;;;;;;;2.47;2.30;;;21.70;63.10;;;;;;5046112;28;20485;-75
2023/10/18 02:52:42;;;;;;;2.60;2.40;;;21.70;63.10;;;;;;5040618;28;20588;-75
2023/10/18 02:55:11;;;;;;;2.63;2.43;;;21.70;63.10;;;;;;5045779;28;20461;-75
2023/10/18 02:57:42;;;;;;;2.80;2.30;;;21.70;63.10;;;;;;5038935;28;20460;-75
2023/10/18 03:00:13;;;;;;;2.40;2.20;;;21.70;63.10;;;;;;5039825;28;21180;-76
2023/10/18 03:02:42;;;;;;;2.10;2.00;;;21.70;63.10;;;;;;5074436;28;20466;-75
2023/10/18 03:05:11;;;;;;;2.50;2.30;;;21.70;63.10;;;;;;5048738;28;20457;-74
2023/10/18 03:07:41;;;;;;;2.40;2.17;;;21.70;63.10;;;;;;5047209;28;20473;-75
2023/10/18 03:10:13;;;;;;;3.07;2.50;;;21.70;63.10;;;;;;5052987;28;20425;-75
2023/10/18 03:12:44;;;;;;;2.83;2.63;;;21.70;63.10;;;;;;5050415;28;20500;-75
2023/10/18 03:15:17;;;;;;;2.90;2.70;;;21.70;63.10;;;;;;5049934;28;20466;-74
2023/10/18 03:17:48;;;;;;;2.93;2.73;;;21.70;63.10;;;;;;5053180;28;20918;-76
2023/10/18 03:20:21;;;;;;;2.70;2.50;;;21.70;63.10;;;;;;5035071;28;20476;-76
2023/10/18 03:22:50;;;;;;;2.70;2.10;;;21.70;63.10;;;;;;5047888;28;21029;-76
2023/10/18 03:25:26;;;;;;;2.00;1.90;;;21.70;63.20;;;;;;5047914;28;20460;-76
2023/10/18 03:27:58;;;;;;;2.30;2.10;;;21.70;63.20;;;;;;5047170;28;20539;-76
2023/10/18 03:30:44;;;;;;;2.20;2.10;;;21.70;63.20;;;;;;5052709;28;20661;-76
2023/10/18 03:33:12;;;;;;;2.50;2.30;;;21.60;63.30;;;;;;5053093;28;20458;-75
2023/10/18 03:35:43;;;;;;;2.50;2.30;;;21.60;63.20;;;;;;5056030;28;20571;-76
2023/10/18 03:38:17;;;;;;;2.97;2.77;;;21.60;63.30;;;;;;5052867;28;20461;-75
2023/10/18 03:40:48;;;;;;;2.60;2.40;;;21.60;63.20;;;;;;5043377;28;21404;-76
2023/10/18 03:43:26;;;;;;;3.60;2.70;;;21.60;63.30;;;;;;5045748;28;20467;-74
2023/10/18 03:46:18;;;;;;;2.20;2.10;;;21.60;63.30;;;;;;5047150;28;20690;-74
2023/10/18 03:48:54;;;;;;;2.07;1.97;;;21.60;63.30;;;;;;5047908;28;20445;-76
2023/10/18 03:51:23;;;;;;;2.33;2.23;;;21.60;63.30;;;;;;5030579;28;20530;-75
2023/10/18 03:53:55;;;;;;;2.60;2.40;;;21.60;63.30;;;;;;5050371;28;21308;-74
2023/10/18 03:56:25;;;;;;;2.37;2.27;;;21.60;63.30;;;;;;5064414;28;20444;-75
2023/10/18 03:59:02;;;;;;;2.97;2.60;;;21.60;63.30;;;;;;5071807;28;20473;-74
2023/10/18 04:01:41;;;;;;;2.73;2.40;;;21.60;63.30;;;;;;5051796;28;20486;-75
2023/10/18 04:04:18;;;;;;;2.70;2.60;;;21.60;63.30;;;;;;5044726;28;20511;-75
2023/10/18 04:06:49;;;;;;;2.53;2.33;;;21.60;63.30;;;;;;5047094;28;20461;-75
2023/10/18 04:09:18;;;;;;;2.70;2.40;;;21.60;63.30;;;;;;5056852;28;21044;-74
2023/10/18 04:11:47;;;;;;;2.67;2.47;;;21.70;63.30;;;;;;5054629;28;20488;-75
2023/10/18 04:14:16;;;;;;;3.10;2.90;;;21.70;63.10;;;;;;5060212;28;20465;-75
2023/10/18 04:16:53;;;;;;;2.80;2.60;;;21.70;63.00;;;;;;5049837;28;20461;-76
2023/10/18 04:19:22;;;;;;;2.50;2.30;;;21.70;62.90;;;;;;5043773;28;20510;-74
2023/10/18 04:21:53;;;;;;;4.20;2.53;;;21.70;62.80;;;;;;5039824;28;20481;-75
2023/10/18 04:24:23;;;;;;;4.30;2.77;;;21.80;62.80;;;;;;5052575;28;20458;-75
2023/10/18 04:26:53;;;;;;;3.07;2.77;;;21.80;62.70;;;;;;5056645;28;21040;-75
2023/10/18 04:29:26;;;;;;;2.80;2.60;;;21.80;62.70;;;;;;5056253;28;20565;-75
2023/10/18 04:31:56;;;;;;;4.10;3.20;;;21.90;62.60;;;;;;5046534;28;20461;-75
2023/10/18 04:34:29;;;;;;;4.10;3.03;;;21.90;62.50;;;;;;5055770;28;21108;-75
2023/10/18 04:36:59;;;;;;;3.60;3.30;;;21.90;62.40;;;;;;5044772;28;20490;-78
2023/10/18 04:39:29;;;;;;;3.33;3.10;;;21.90;62.30;;;;;;5046165;28;20531;-76
2023/10/18 04:41:58;;;;;;;3.90;3.20;;;22.00;62.20;;;;;;5048105;28;20459;-76
2023/10/18 04:44:27;;;;;;;4.33;3.83;;;22.00;62.10;;;;;;5071199;28;20520;-76
2023/10/18 04:46:59;;;;;;;6.33;2.90;;;22.00;62.00;;;;;;5055751;28;20890;-75
2023/10/18 04:49:36;;;;;;;3.57;3.27;;;22.10;61.90;;;;;;5040369;28;20454;-75
2023/10/18 04:52:07;;;;;;;2.80;2.60;;;22.10;61.80;;;;;;5054293;28;20471;-75
2023/10/18 04:54:38;;;;;;;2.77;2.60;;;22.10;61.70;;;;;;5042323;28;21019;-75
2023/10/18 04:57:10;;;;;;;3.33;3.03;;;22.10;61.60;;;;;;5039260;28;20469;-76
2023/10/18 04:59:52;;;;;;;3.10;2.87;;;22.10;61.60;;;;;;5047021;28;20790;-71
2023/10/18 05:02:26;;;;;;;3.30;3.10;;;22.10;61.60;;;;;;5035535;28;20551;-74
2023/10/18 05:04:55;;;;;;;3.47;3.27;;;22.10;61.60;;;;;;5043027;28;20470;-75
2023/10/18 05:07:38;;;;;;;4.47;2.80;;;22.10;61.70;;;;;;5044960;28;20560;-74
2023/10/18 05:10:14;;;;;;;3.13;2.83;;;22.10;61.70;;;;;;5031421;28;20500;-76
2023/10/18 05:12:48;;;;;;;6.43;3.47;;;22.10;61.80;;;;;;5042180;28;20466;-76
2023/10/18 05:15:21;;;;;;;3.73;2.90;;;22.10;61.90;;;;;;5046691;28;20470;-76
2023/10/18 05:17:54;;;;;;;3.20;3.00;;;22.00;62.00;;;;;;5038962;28;20493;-75
2023/10/18 05:20:24;;;;;;;2.90;2.70;;;22.00;62.00;;;;;;5038090;28;20806;-74
2023/10/18 05:22:59;;;;;;;3.00;2.67;;;22.00;62.10;;;;;;5050268;28;20808;-73
2023/10/18 05:25:34;;;;;;;3.07;2.77;;;22.00;62.10;;;;;;5043502;28;20957;-74
2023/10/18 05:28:09;;;;;;;3.00;2.80;;;22.00;62.20;;;;;;5043461;28;20834;-76
2023/10/18 05:36:35;;;;;;;3.37;3.07;;;21.90;62.40;;;;;;5028356;28;20471;-76
2023/10/18 05:41:51;;;;;;;2.90;2.70;;;21.90;62.50;;;;;;5045470;28;20575;-73
2023/10/18 05:44:20;;;;;;;3.27;2.80;;;21.80;62.50;;;;;;5048449;28;20460;-73
2023/10/18 05:46:50;;;;;;;5.30;3.00;;;21.90;62.60;;;;;;5044777;28;20473;-73
2023/10/18 05:49:24;;;;;;;2.90;2.70;;;21.90;62.60;;;;;;5035759;28;20454;-71
2023/10/18 05:52:15;;;;;;;2.70;2.50;;;21.90;62.60;;;;;;5041828;28;20488;-75
2023/10/18 05:54:44;;;;;;;3.57;3.27;;;21.90;62.60;;;;;;5039027;28;20473;-75
2023/10/18 05:57:19;;;;;;;5.80;3.07;;;21.90;62.60;;;;;;5040073;28;20462;-72
2023/10/18 05:59:48;;;;;;;3.73;3.37;;;21.90;62.60;;;;;;5044642;28;20538;-75
2023/10/18 06:02:23;;;;;;;3.57;3.20;;;21.90;62.60;;;;;;5043209;28;20593;-73
2023/10/18 06:04:55;;;;;;;4.13;3.70;;;21.90;62.60;;;;;;5043045;28;20491;-75
2023/10/18 06:07:29;;;;;;;3.13;2.93;;;21.90;62.60;;;;;;5050301;28;20446;-76
2023/10/18 06:09:59;;;;;;;3.30;3.00;;;22.00;62.50;;;;;;5045975;28;21034;-74
2023/10/18 06:12:30;;;;;;;3.10;2.90;;;22.00;62.50;;;;;;5053295;28;20945;-75
2023/10/18 06:15:10;;;;;;;4.17;3.63;;;22.00;62.50;;;;;;5052506;28;20569;-76
2023/10/18 06:17:47;;;;;;;3.13;2.93;;;22.00;62.40;;;;;;5053323;28;20469;-76
2023/10/18 06:20:27;;;;;;;3.23;2.90;;;22.00;62.40;;;;;;5047869;28;20539;-76
2023/10/18 06:23:28;;;;;;;3.33;3.03;;;22.00;62.40;;;;;;5062946;28;20489;-75
2023/10/18 06:25:59;;;;;;;5.43;3.93;;;22.00;62.40;;;;;;5052972;28;20446;-76
2023/10/18 06:28:30;;;;;;;4.03;3.43;;;22.00;62.40;;;;;;5051738;28;20490;-74
2023/10/18 06:30:59;;;;;;;3.67;3.37;;;22.00;62.30;;;;;;5053233;28;20442;-74
2023/10/18 06:33:35;;;;;;;3.60;3.33;;;22.00;62.30;;;;;;5053226;28;20525;-76
2023/10/18 06:36:12;;;;;;;4.10;3.80;;;22.00;62.30;;;;;;5048498;28;20531;-74
2023/10/18 06:38:42;;;;;;;3.30;3.07;;;22.00;62.20;;;;;;5046920;28;20556;-74
2023/10/18 06:41:18;;;;;;;5.57;2.90;;;22.00;62.20;;;;;;5040197;28;20485;-73
2023/10/18 06:43:47;;;;;;;3.80;2.63;;;22.00;62.20;;;;;;5040959;28;20583;-75
2023/10/18 06:46:26;;;;;;;3.67;3.33;;;22.00;62.20;;;;;;5052242;28;20593;-76
2023/10/18 06:48:56;;;;;;;2.87;2.73;;;22.00;62.20;;;;;;5047832;28;21058;-74
2023/10/18 06:51:44;;;;;;;3.70;3.40;;;22.00;62.10;;;;;;5042085;28;20475;-76
2023/10/18 06:54:23;;;;;;;3.27;3.03;;;22.00;62.20;;;;;;5045372;28;20527;-73
2023/10/18 06:56:53;;;;;;;3.50;3.20;;;22.00;62.10;;;;;;5049402;28;20458;-76
2023/10/18 06:59:25;;;;;;;2.90;2.70;;;22.00;62.20;;;;;;5043793;28;20486;-76
2023/10/18 07:01:54;;;;;;;3.27;3.03;;;22.00;62.20;;;;;;5044385;28;20988;-76
2023/10/18 07:04:28;;;;;;;3.50;3.20;;;22.00;62.20;;;;;;5044316;28;20465;-71
2023/10/18 07:06:58;;;;;;;3.27;3.07;;;22.00;62.20;;;;;;5042136;28;20962;-76
2023/10/18 07:09:26;;;;;;;3.53;3.23;;;22.00;62.20;;;;;;5045933;28;20453;-76
2023/10/18 07:12:03;;;;;;;3.57;3.20;;;21.90;62.20;;;;;;5043831;28;20543;-76
2023/10/18 07:14:32;;;;;;;3.53;3.23;;;21.90;62.20;;;;;;5045744;28;20813;-76
2023/10/18 07:17:04;;;;;;;3.13;2.93;;;21.90;62.30;;;;;;5048079;28;20461;-76
2023/10/18 07:19:41;;;;;;;2.90;2.70;;;21.90;62.20;;;;;;5060952;28;20796;-76
2023/10/18 07:22:17;;;;;;;3.00;2.80;;;21.90;62.30;;;;;;5042289;28;20483;-73
2023/10/18 07:24:53;;;;;;;2.87;2.60;;;21.90;62.30;;;;;;5049273;28;20915;-76
2023/10/18 07:27:23;;;;;;;3.60;3.30;;;21.90;62.30;;;;;;5047215;28;20459;-76
2023/10/18 07:29:51;;;;;;;4.50;3.10;;;21.90;62.30;;;;;;5044933;28;20465;-76
2023/10/18 07:32:23;;;;;;;3.80;3.50;;;21.90;62.30;;;;;;5049512;28;20531;-77
2023/10/18 07:34:54;;;;;;;2.80;2.50;;;21.90;62.30;;;;;;5041278;28;20466;-75
2023/10/18 07:37:38;;;;;;;3.97;3.67;;;22.00;62.20;;;;;;5042893;28;20458;-75
2023/10/18 07:40:10;;;;;;;3.30;3.03;;;21.90;62.20;;;;;;5043016;28;20976;-75
2023/10/18 07:42:43;;;;;;;3.33;3.03;;;22.00;62.20;;;;;;5047471;28;20485;-74
2023/10/18 07:45:14;;;;;;;3.63;3.43;;;22.00;62.20;;;;;;5051665;28;20451;-74
2023/10/18 07:47:43;;;;;;;2.90;2.70;;;22.00;62.20;;;;;;5044281;28;20468;-75
2023/10/18 07:50:41;;;;;;;3.07;2.87;;;22.00;62.10;;;;;;5051623;28;20519;-74
2023/10/18 07:53:12;;;;;;;3.30;3.10;;;22.00;62.10;;;;;;5046951;28;20466;-74
2023/10/18 07:55:42;;;;;;;3.43;3.23;;;22.00;62.10;;;;;;5049835;28;20521;-75
2023/10/18 07:58:23;;;;;;;4.23;3.83;;;22.00;62.10;;;;;;5043023;28;20567;-74
2023/10/18 08:01:09;;;;;;;3.53;3.20;;;22.00;62.10;;;;;;5043717;28;20492;-74
2023/10/18 08:03:38;;;;;;;3.90;3.10;;;22.00;62.10;;;;;;5044612;28;20985;-74
2023/10/18 08:06:15;;;;;;;3.83;3.53;;;22.00;62.10;;;;;;5046236;28;20463;-74
2023/10/18 08:08:46;;;;;;;3.43;3.10;;;22.00;62.00;;;;;;5036064;28;20452;-74
2023/10/18 08:11:15;;;;;;;3.23;3.03;;;22.00;62.00;;;;;;5051819;28;20423;-74
2023/10/18 08:13:46;;;;;;;3.40;3.10;;;22.00;62.00;;;;;;5052477;28;20454;-74
2023/10/18 08:16:20;;;;;;;3.73;3.33;;;22.00;62.00;;;;;;5051182;28;20450;-74
2023/10/18 08:18:59;;;;;;;3.50;3.20;;;22.00;62.00;;;;;;5041758;28;20864;-77
2023/10/18 08:21:28;;;;;;;3.00;2.80;;;22.00;62.00;;;;;;5040852;28;20490;-77
2023/10/18 08:24:07;;;;;;;3.80;3.50;;;22.00;62.10;;;;;;5043621;28;20470;-76
2023/10/18 08:26:46;;;;;;;6.20;3.67;;;22.00;62.60;;;;;;5044831;28;20481;-77
2023/10/18 08:29:15;;;;;;;4.27;3.97;;;22.10;62.90;;;;;;5044641;28;20836;-71
2023/10/18 08:31:48;;;;;;;4.40;4.00;;;22.10;63.20;;;;;;5042849;28;20483;-75
2023/10/18 08:34:18;;;;;;;3.97;3.57;;;22.10;63.40;;;;;;5047675;28;20465;-74
2023/10/18 08:36:48;;;;;;;5.20;4.17;;;22.20;63.40;;;;;;5041914;28;20961;-77
2023/10/18 08:39:25;;;;;;;5.40;3.53;;;22.20;63.50;;;;;;5041390;28;20558;-76
2023/10/18 08:42:01;;;;;;;4.13;3.80;;;22.20;63.40;;;;;;5040538;28;20483;-78
2023/10/18 08:44:31;;;;;;;4.40;4.00;;;22.20;63.30;;;;;;5044417;28;20458;-76
2023/10/18 08:47:11;;;;;;;5.53;4.23;;;22.20;63.30;;;;;;5042352;28;20473;-78
2023/10/18 08:49:51;;;;;;;4.37;3.97;;;22.20;63.30;;;;;;5046252;28;20477;-77
2023/10/18 08:52:23;;;;;;;3.40;3.20;;;22.30;63.10;;;;;;5046348;28;20958;-74
2023/10/18 08:54:53;;;;;;;5.20;4.70;;;22.20;63.00;;;;;;5039903;28;20482;-74
2023/10/18 08:57:34;;;;;;;3.77;3.40;;;22.30;63.00;;;;;;5040929;28;20512;-78
2023/10/18 09:00:20;;;;;;;4.03;3.63;;;22.30;63.00;;;;;;5045805;28;20516;-75
2023/10/18 09:03:01;;;;;;;4.90;4.00;;;22.30;63.00;;;;;;5043662;28;20567;-77
2023/10/18 09:05:32;;;;;;;5.63;3.53;;;22.30;62.90;;;;;;5041593;28;20934;-77
2023/10/18 09:08:03;;;;;;;4.77;3.93;;;22.30;62.90;;;;;;5039057;28;20452;-78
2023/10/18 09:10:46;;;;;;;4.23;3.90;;;22.30;62.80;;;;;;5044005;28;20583;-72
2023/10/18 09:13:33;;;;;;;5.07;4.53;;;22.30;62.70;;;;;;5040719;28;20509;-78
2023/10/18 09:16:11;;;;;;;4.33;3.93;;;22.30;62.70;;;;;;5045922;28;20516;-75
2023/10/18 09:18:39;;;;;;;4.07;3.77;;;22.30;62.60;;;;;;5048208;28;20462;-77
2023/10/18 09:21:17;;;;;;;4.23;3.73;;;22.30;62.60;;;;;;5043147;28;20962;-74
2023/10/18 09:23:49;;;;;;;4.53;4.20;;;22.30;62.50;;;;;;5045571;28;20462;-80
2023/10/18 09:26:26;;;;;;;4.17;3.87;;;22.30;62.50;;;;;;5042270;28;20470;-77
2023/10/18 09:28:59;;;;;;;4.90;4.40;;;22.40;62.30;;;;;;5058086;28;20492;-76
2023/10/18 09:31:28;;;;;;;4.37;4.07;;;22.40;62.30;;;;;;5046039;28;20984;-76
2023/10/18 09:33:58;;;;;;;4.03;3.73;;;22.40;62.30;;;;;;5040963;28;20976;-80
2023/10/18 09:36:27;;;;;;;3.80;3.60;;;22.40;62.10;;;;;;5044383;28;20463;-78
2023/10/18 09:38:59;;;;;;;4.73;4.20;;;22.40;62.00;;;;;;5044385;28;20461;-76
2023/10/18 09:41:30;;;;;;;4.27;3.93;;;22.50;62.00;;;;;;5044551;28;23516;-76
2023/10/18 09:44:01;;;;;;;5.70;3.80;;;22.50;61.80;;;;;;5044721;28;20542;-77
2023/10/18 09:46:30;;;;;;;4.17;3.77;;;22.50;61.80;;;;;;5046734;28;20458;-77
2023/10/18 09:49:00;;;;;;;4.23;3.77;;;22.50;61.70;;;;;;5046375;28;21012;-77
2023/10/18 09:51:30;;;;;;;4.70;4.30;;;22.50;61.50;;;;;;5040768;28;20509;-77
2023/10/18 09:53:58;;;;;;;3.63;3.43;;;22.50;61.50;;;;;;5043660;28;20466;-76
2023/10/18 09:56:33;;;;;;;4.20;3.90;;;22.50;61.50;;;;;;5042623;28;20451;-78
2023/10/18 09:59:06;;;;;;;4.67;4.23;;;22.50;61.40;;;;;;5044417;28;20511;-77
2023/10/18 10:04:18;;;;;;;3.87;3.57;;;22.50;61.40;;;;;;5043146;28;20899;-78
2023/10/18 10:06:52;;;;;;;4.37;3.90;;;22.50;61.40;;;;;;5042464;28;20875;-81
2023/10/18 10:09:28;;;;;;;5.97;4.40;;;22.50;61.30;;;;;;5042837;28;20528;-79
2023/10/18 10:12:00;;;;;;;4.57;4.17;;;22.50;61.30;;;;;;5041123;28;21097;-79
2023/10/18 10:14:30;;;;;;;4.43;4.13;;;22.50;61.30;;;;;;5045592;28;20851;-79
2023/10/18 10:17:05;;;;;;;3.60;3.30;;;22.50;61.20;;;;;;5042509;28;20562;-77
2023/10/18 10:19:37;;;;;;;4.07;3.67;;;22.50;61.20;;;;;;5046332;28;20502;-80
2023/10/18 10:22:06;;;;;;;3.73;3.43;;;22.50;61.20;;;;;;5045734;28;20474;-81
2023/10/18 10:24:42;;;;;;;3.40;3.20;;;22.50;61.20;;;;;;5045276;28;20458;-76
2023/10/18 10:27:49;;;;;;;3.73;3.43;;;22.50;61.20;;;;;;5042500;28;20469;-77
2023/10/18 10:30:25;;;;;;;3.90;3.60;;;22.50;61.20;;;;;;5040955;28;20550;-80
2023/10/18 10:32:58;;;;;;;4.27;3.87;;;22.50;61.20;;;;;;5044829;28;20458;-78
2023/10/18 10:35:32;;;;;;;3.43;3.23;;;22.50;61.20;;;;;;5042193;28;20986;-79
2023/10/18 10:38:09;;;;;;;4.43;4.03;;;22.50;61.00;;;;;;5039856;28;20459;-74
2023/10/18 10:40:44;;;;;;;3.60;3.30;;;22.50;61.00;;;;;;5041971;28;20575;-79
2023/10/18 10:43:14;;;;;;;4.37;4.00;;;22.50;61.00;;;;;;5048336;28;20936;-76
2023/10/18 10:45:53;;;;;;;4.13;3.80;;;22.50;61.00;;;;;;5048770;28;20463;-76
2023/10/18 10:48:43;;;;;;;5.07;4.70;;;22.60;61.00;;;;;;5034001;28;21102;-78
2023/10/18 10:51:13;;;;;;;3.90;3.60;;;22.60;60.90;;;;;;5046663;28;20463;-78
2023/10/18 10:53:48;;;;;;;3.93;3.63;;;22.60;60.90;;;;;;5049037;28;20470;-79
2023/10/18 10:56:43;;;;;;;4.07;3.77;;;22.60;60.70;;;;;;5046558;28;20554;-79
2023/10/18 10:59:21;;;;;;;3.87;3.57;;;22.60;60.60;;;;;;5040091;28;20533;-79
2023/10/18 11:02:06;;;;;;;4.17;3.87;;;22.60;60.60;;;;;;5044622;28;20498;-81
2023/10/18 11:04:49;;;;;;;4.90;3.73;;;22.60;60.50;;;;;;5035454;28;20539;-75
2023/10/18 11:07:22;;;;;;;4.50;4.10;;;22.60;60.50;;;;;;5046684;28;20547;-77
2023/10/18 11:09:59;;;;;;;4.10;3.80;;;22.60;60.40;;;;;;5042559;28;20463;-77
2023/10/18 11:12:29;;;;;;;3.70;3.40;;;22.60;60.40;;;;;;5046556;28;20538;-77
2023/10/18 11:15:04;;;;;;;4.00;3.70;;;22.60;60.30;;;;;;5043113;28;21014;-74
2023/10/18 11:17:34;;;;;;;3.63;3.43;;;22.60;60.40;;;;;;5039022;28;20538;-77
2023/10/18 11:20:18;;;;;;;4.80;4.30;;;22.60;60.40;;;;;;5044645;28;20536;-77
2023/10/18 11:22:47;;;;;;;4.77;4.37;;;22.60;60.40;;;;;;5042169;28;20478;-77
2023/10/18 11:25:20;;;;;;;3.63;3.33;;;22.50;60.30;;;;;;5042272;28;20474;-72
2023/10/18 11:27:48;;;;;;;4.00;3.70;;;22.50;60.40;;;;;;5042734;28;20502;-73
2023/10/18 11:30:22;;;;;;;4.03;3.73;;;22.50;60.40;;;;;;5033024;28;20478;-71
2023/10/18 11:32:53;;;;;;;4.17;3.80;;;22.50;60.40;;;;;;5040438;28;20456;-71
2023/10/18 11:35:38;;;;;;;3.90;3.50;;;22.50;60.40;;;;;;5047913;28;21169;-72
2023/10/18 11:38:09;;;;;;;4.47;4.10;;;22.50;60.30;;;;;;5046045;28;20525;-73
2023/10/18 11:40:40;;;;;;;4.03;3.73;;;22.50;60.30;;;;;;5039038;28;20948;-72
2023/10/18 11:43:09;;;;;;;4.33;4.03;;;22.50;60.30;;;;;;5042683;28;20478;-71
2023/10/18 11:45:40;;;;;;;4.80;4.13;;;22.50;60.30;;;;;;5042106;28;20452;-75
2023/10/18 11:48:10;;;;;;;4.73;4.33;;;22.50;60.20;;;;;;5043681;28;20454;-75
2023/10/18 11:50:40;;;;;;;6.30;4.20;;;22.50;60.20;;;;;;5040460;28;20467;-74
2023/10/18 11:53:12;;;;;;;4.17;3.87;;;22.50;60.10;;;;;;5042097;28;20962;-74
2023/10/18 11:55:56;;;;;;;5.70;4.10;;;22.50;60.10;;;;;;5033847;28;20467;-74
2023/10/18 11:58:25;;;;;;;4.00;3.70;;;22.50;60.10;;;;;;5056008;28;20889;-75
2023/10/18 12:01:00;;;;;;;4.30;3.90;;;22.60;59.90;;;;;;5043459;28;20585;-74
2023/10/18 12:03:29;;;;;;;4.53;4.10;;;22.60;59.90;;;;;;5043572;28;21004;-75
2023/10/18 12:05:59;;;;;;;5.03;4.63;;;22.60;59.70;;;;;;5042718;28;20505;-75
2023/10/18 12:08:30;;;;;;;4.73;4.23;;;22.60;59.50;;;;;;5033659;28;20498;-69
2023/10/18 12:10:58;;;;;;;4.97;4.53;;;22.70;59.50;;;;;;5044125;28;20489;-68
2023/10/18 12:13:27;;;;;;;4.87;4.47;;;22.70;59.60;;;;;;5040460;28;20466;-69
2023/10/18 12:16:00;;;;;;;5.10;4.33;;;22.70;59.80;;;;;;5043334;28;21105;-69
2023/10/18 12:18:29;;;;;;;5.57;4.43;;;22.70;59.80;;;;;;5044119;28;20451;-69
2023/10/18 12:20:57;;;;;;;5.00;4.50;;;22.80;59.90;;;;;;5037901;28;20467;-69
2023/10/18 12:23:26;;;;;;;4.77;4.40;;;22.80;59.90;;;;;;5038528;28;20528;-69
2023/10/18 12:25:54;;;;;;;4.60;4.20;;;22.80;60.00;;;;;;5042961;28;20451;-69
2023/10/18 12:28:28;;;;;;;4.57;4.17;;;22.80;60.00;;;;;;5045535;28;20451;-69
2023/10/18 12:31:00;;;;;;;4.00;3.73;;;22.80;60.00;;;;;;5045872;28;20469;-69
2023/10/18 12:33:33;;;;;;;4.30;3.90;;;22.90;60.00;;;;;;5048013;28;20455;-69
2023/10/18 12:36:01;;;;;;;5.13;4.63;;;22.90;60.10;;;;;;5045699;28;20458;-70
2023/10/18 12:38:32;;;;;;;4.10;3.80;;;22.90;60.10;;;;;;5048391;28;20458;-69
2023/10/18 12:41:05;;;;;;;4.03;3.63;;;22.90;60.10;;;;;;5045368;28;20468;-69
2023/10/18 12:43:38;;;;;;;4.43;4.10;;;22.90;60.20;;;;;;5040598;28;20870;-69
2023/10/18 12:46:08;;;;;;;3.77;3.47;;;22.90;60.10;;;;;;5045366;28;20482;-69
2023/10/18 12:48:40;;;;;;;4.40;4.00;;;22.90;60.20;;;;;;5048095;28;20457;-68
2023/10/18 12:51:13;;;;;;;4.37;4.00;;;22.90;60.20;;;;;;5043668;28;20486;-69
2023/10/18 12:53:46;;;;;;;4.40;4.07;;;22.90;60.30;;;;;;5043118;28;20451;-69
2023/10/18 12:59:22;;;;;;;3.87;3.67;;;22.90;60.40;;;;;;5041700;28;20470;-69
2023/10/18 13:01:58;;;;;;;4.30;3.90;;;22.90;60.40;;;;;;5043570;28;20487;-69
2023/10/18 13:04:25;;;;;;;4.27;3.90;;;22.90;60.40;;;;;;5043488;28;20478;-69
2023/10/18 13:06:54;;;;;;;4.03;3.63;;;22.90;60.40;;;;;;5045559;28;20475;-69
2023/10/18 13:09:23;;;;;;;3.50;3.20;;;22.90;60.40;;;;;;5042087;28;20468;-69
2023/10/18 13:12:00;;;;;;;4.87;4.47;;;22.90;60.50;;;;;;5036782;28;20463;-69
2023/10/18 13:14:32;;;;;;;4.57;4.27;;;22.90;60.50;;;;;;5039697;28;20463;-69
2023/10/18 13:17:06;;;;;;;3.43;3.20;;;22.90;60.50;;;;;;5042519;28;21059;-70
2023/10/18 13:19:41;;;;;;;4.03;3.63;;;22.90;60.40;;;;;;5041019;28;20541;-69
2023/10/18 13:22:17;;;;;;;4.53;4.00;;;22.90;60.40;;;;;;5046608;28;20547;-69
2023/10/18 13:24:48;;;;;;;3.83;3.53;;;23.00;60.30;;;;;;5044038;28;20499;-69
2023/10/18 13:27:18;;;;;;;4.17;3.87;;;23.00;60.20;;;;;;5043141;28;20521;-69
2023/10/18 13:30:00;;;;;;;3.90;3.60;;;23.10;60.20;;;;;;5044915;28;20476;-69
2023/10/18 13:32:30;;;;;;;4.17;3.77;;;23.10;60.10;;;;;;5044012;28;20562;-68